Time;durP1;ratioP1;P1;durP2;ratioP2;P2;SDS_P1;SDS_P2;PMS_P1;PMS_P2;Temp;Humidity;BMP_temperature;BMP_pressure;BME280_temperature;BME280_humidity;BME280_pressure;Samples;Min_cycle;Max_cycle;Signal;HPM_P1;HPM_P2
2021/04/19 00:01:31;;;;;;;10.15;6.70;;;;;;;;;;4974184;28;20062;-70
2021/04/19 00:03:57;;;;;;;12.95;6.50;;;;;;;;;;4974958;28;20519;-71
2021/04/19 00:06:24;;;;;;;11.93;5.72;;;;;;;;;;4974892;28;20042;-70
2021/04/19 00:08:50;;;;;;;8.50;5.38;;;;;;;;;;4974570;28;20053;-71
2021/04/19 00:11:16;;;;;;;9.10;5.75;;;;;;;;;;4973642;28;20030;-72
2021/04/19 00:13:43;;;;;;;11.38;5.15;;;;;;;;;;4974946;28;20497;-73
2021/04/19 00:16:09;;;;;;;9.00;5.60;;;;;;;;;;4973537;28;20055;-71
2021/04/19 00:18:35;;;;;;;15.95;5.05;;;;;;;;;;4973553;28;20019;-71
2021/04/19 00:21:01;;;;;;;7.70;5.10;;;;;;;;;;4973264;28;20034;-70
2021/04/19 00:23:27;;;;;;;9.45;5.25;;;;;;;;;;4990163;28;20046;-73
2021/04/19 00:25:53;;;;;;;8.18;4.85;;;;;;;;;;4976636;28;20019;-73
2021/04/19 00:28:19;;;;;;;8.98;5.45;;;;;;;;;;4994024;28;20026;-72
2021/04/19 00:30:45;;;;;;;8.93;4.95;;;;;;;;;;4976288;28;20026;-72
2021/04/19 00:33:11;;;;;;;7.72;4.80;;;;;;;;;;4993825;28;20113;-70
2021/04/19 00:35:37;;;;;;;10.10;5.38;;;;;;;;;;4994283;28;20073;-70
2021/04/19 00:38:03;;;;;;;11.90;4.88;;;;;;;;;;4994064;28;20028;-70
2021/04/19 00:40:31;;;;;;;10.93;5.45;;;;;;;;;;4993846;28;20020;-70
2021/04/19 00:42:57;;;;;;;10.95;5.00;;;;;;;;;;4993789;28;20034;-71
2021/04/19 00:45:24;;;;;;;7.80;4.88;;;;;;;;;;4993293;28;20031;-70
2021/04/19 00:47:50;;;;;;;7.78;5.03;;;;;;;;;;4993804;28;20033;-70
2021/04/19 00:50:25;;;;;;;8.60;4.93;;;;;;;;;;4976268;28;20073;-70
2021/04/19 00:52:51;;;;;;;9.18;4.55;;;;;;;;;;4993664;28;20034;-70
2021/04/19 00:55:17;;;;;;;7.10;4.65;;;;;;;;;;4993823;28;20031;-70
2021/04/19 00:57:44;;;;;;;10.57;5.03;;;;;;;;;;4972028;28;20026;-71
2021/04/19 01:00:12;;;;;;;9.13;4.57;;;;;;;;;;4987411;28;20069;-70
2021/04/19 01:02:39;;;;;;;8.45;4.80;;;;;;;;;;4993604;28;20626;-70
2021/04/19 01:05:07;;;;;;;19.20;5.15;;;;;;;;;;4993666;28;20132;-71
2021/04/19 01:07:34;;;;;;;7.80;4.47;;;;;;;;;;4993401;28;20374;-72
2021/04/19 01:10:00;;;;;;;8.75;4.90;;;;;;;;;;4993329;28;20019;-70
2021/04/19 01:12:26;;;;;;;9.52;4.70;;;;;;;;;;4993452;28;20022;-70
2021/04/19 01:14:52;;;;;;;8.80;4.72;;;;;;;;;;4975740;28;20019;-70
2021/04/19 01:17:18;;;;;;;7.07;5.13;;;;;;;;;;4975931;28;20026;-71
2021/04/19 01:19:44;;;;;;;7.57;4.47;;;;;;;;;;4993478;28;20022;-70
2021/04/19 01:22:10;;;;;;;7.43;4.90;;;;;;;;;;4975256;28;20490;-70
2021/04/19 01:24:36;;;;;;;7.03;4.38;;;;;;;;;;4993326;28;20455;-70
2021/04/19 01:27:02;;;;;;;9.82;4.82;;;;;;;;;;4975704;28;20439;-70
2021/04/19 01:29:28;;;;;;;8.75;4.45;;;;;;;;;;4993232;28;20053;-70
2021/04/19 01:31:54;;;;;;;6.63;4.78;;;;;;;;;;4992969;28;20043;-71
2021/04/19 01:34:20;;;;;;;7.57;4.65;;;;;;;;;;4993164;28;20022;-70
2021/04/19 01:36:47;;;;;;;6.38;4.60;;;;;;;;;;4993321;28;20029;-70
2021/04/19 01:39:16;;;;;;;7.20;4.45;;;;;;;;;;4975635;28;20077;-72
2021/04/19 01:41:43;;;;;;;5.95;3.80;;;;;;;;;;4975635;28;20121;-71
2021/04/19 01:44:09;;;;;;;6.03;4.38;;;;;;;;;;4975474;28;20030;-70
2021/04/19 01:46:35;;;;;;;6.38;4.57;;;;;;;;;;4992994;28;20026;-70
2021/04/19 01:49:01;;;;;;;7.47;4.60;;;;;;;;;;4992758;28;20026;-70
2021/04/19 01:51:28;;;;;;;7.82;4.80;;;;;;;;;;4992634;28;20076;-71
2021/04/19 01:53:54;;;;;;;7.13;4.35;;;;;;;;;;4975177;28;20391;-70
2021/04/19 01:56:20;;;;;;;7.28;4.57;;;;;;;;;;4975375;28;20045;-71
2021/04/19 01:58:47;;;;;;;7.13;4.63;;;;;;;;;;4975248;28;20563;-72
2021/04/19 02:01:13;;;;;;;8.02;4.65;;;;;;;;;;4992655;28;20034;-71
2021/04/19 02:03:48;;;;;;;6.22;4.20;;;;;;;;;;4975102;28;20038;-71
2021/04/19 02:06:32;;;;;;;6.25;4.22;;;;;;;;;;4975171;28;20057;-70
2021/04/19 02:09:17;;;;;;;6.97;4.63;;;;;;;;;;4992655;28;20384;-70
2021/04/19 02:11:48;;;;;;;7.10;4.35;;;;;;;;;;4975200;28;20053;-70
2021/04/19 02:14:19;;;;;;;6.68;4.32;;;;;;;;;;4992576;28;20050;-71
2021/04/19 02:16:47;;;;;;;6.63;4.25;;;;;;;;;;4992602;28;20054;-70
2021/04/19 02:19:22;;;;;;;7.65;4.50;;;;;;;;;;4992629;28;20026;-70
2021/04/19 02:21:52;;;;;;;6.28;4.03;;;;;;;;;;4992183;28;20034;-70
2021/04/19 02:24:20;;;;;;;6.90;4.43;;;;;;;;;;4992371;28;20054;-70
2021/04/19 02:26:55;;;;;;;6.65;4.50;;;;;;;;;;4992515;28;20029;-70
2021/04/19 02:29:32;;;;;;;6.60;3.95;;;;;;;;;;4992268;28;20033;-70
2021/04/19 02:32:02;;;;;;;5.63;3.92;;;;;;;;;;4992168;28;20030;-71
2021/04/19 02:34:30;;;;;;;5.80;4.22;;;;;;;;;;4994122;28;20045;-70
2021/04/19 02:36:57;;;;;;;5.97;4.18;;;;;;;;;;4978949;28;20029;-71
2021/04/19 02:39:24;;;;;;;7.15;4.40;;;;;;;;;;4978663;28;20379;-70
2021/04/19 02:41:52;;;;;;;6.30;4.05;;;;;;;;;;4996031;28;20030;-70
2021/04/19 02:44:20;;;;;;;7.43;3.90;;;;;;;;;;4977867;28;20034;-70
2021/04/19 02:46:47;;;;;;;6.07;4.28;;;;;;;;;;4991692;28;20630;-70
2021/04/19 02:49:13;;;;;;;6.63;4.28;;;;;;;;;;4995981;28;20113;-71
2021/04/19 02:51:42;;;;;;;6.50;4.38;;;;;;;;;;4995794;28;20019;-71
2021/04/19 02:54:09;;;;;;;6.40;4.15;;;;;;;;;;4978718;28;20599;-71
2021/04/19 02:56:36;;;;;;;7.20;4.32;;;;;;;;;;4995721;28;20058;-69
2021/04/19 02:59:09;;;;;;;6.47;4.00;;;;;;;;;;4996285;28;20073;-70
2021/04/19 03:01:37;;;;;;;6.85;4.15;;;;;;;;;;4995937;28;20073;-72
2021/04/19 03:04:06;;;;;;;5.93;4.13;;;;;;;;;;4996067;28;20104;-70
2021/04/19 03:06:35;;;;;;;6.20;4.13;;;;;;;;;;4978292;28;20029;-72
2021/04/19 03:09:03;;;;;;;7.00;4.20;;;;;;;;;;4995807;28;20098;-71
2021/04/19 03:11:34;;;;;;;7.15;4.50;;;;;;;;;;4995643;28;20025;-71
2021/04/19 03:14:02;;;;;;;6.45;4.40;;;;;;;;;;4995641;28;20028;-71
2021/04/19 03:16:29;;;;;;;6.40;4.13;;;;;;;;;;4995597;28;20518;-71
2021/04/19 03:18:56;;;;;;;6.80;4.18;;;;;;;;;;4977686;28;20026;-71
2021/04/19 03:21:23;;;;;;;8.13;4.70;;;;;;;;;;4995147;28;20030;-70
2021/04/19 03:23:54;;;;;;;6.45;4.22;;;;;;;;;;4995259;28;20050;-71
2021/04/19 03:26:22;;;;;;;6.68;4.15;;;;;;;;;;4995386;28;20045;-70
2021/04/19 03:28:50;;;;;;;8.88;4.72;;;;;;;;;;4977667;28;20433;-70
2021/04/19 03:31:36;;;;;;;6.63;4.40;;;;;;;;;;4994846;28;20030;-71
2021/04/19 03:34:05;;;;;;;6.60;4.10;;;;;;;;;;4981470;28;20081;-70
2021/04/19 03:36:32;;;;;;;5.85;4.03;;;;;;;;;;4989860;28;20030;-70
2021/04/19 03:38:59;;;;;;;6.25;4.32;;;;;;;;;;4977619;28;20085;-70
2021/04/19 03:41:26;;;;;;;8.02;4.07;;;;;;;;;;4977543;28;20030;-71
2021/04/19 03:43:57;;;;;;;5.95;3.92;;;;;;;;;;4994712;28;20387;-70
2021/04/19 03:46:24;;;;;;;6.67;4.33;;;;;;;;;;4977821;28;20427;-72
2021/04/19 03:48:53;;;;;;;6.75;4.70;;;;;;;;;;4977463;28;20112;-70
2021/04/19 03:51:21;;;;;;;6.78;4.72;;;;;;;;;;4977313;28;20160;-70
2021/04/19 03:53:49;;;;;;;6.18;4.40;;;;;;;;;;4994854;28;20546;-70
2021/04/19 03:56:17;;;;;;;6.30;4.00;;;;;;;;;;4977472;28;20416;-72
2021/04/19 03:58:44;;;;;;;6.65;4.10;;;;;;;;;;4994648;28;20034;-70
2021/04/19 04:01:11;;;;;;;6.35;4.05;;;;;;;;;;4994433;28;20554;-71
2021/04/19 04:03:38;;;;;;;7.40;4.50;;;;;;;;;;4994526;28;20498;-71
2021/04/19 04:06:05;;;;;;;7.97;4.72;;;;;;;;;;4994773;28;20026;-71
2021/04/19 04:08:31;;;;;;;7.07;4.18;;;;;;;;;;4994857;28;20032;-71
2021/04/19 04:10:58;;;;;;;6.57;3.88;;;;;;;;;;4994607;28;20479;-70
2021/04/19 04:13:24;;;;;;;6.05;3.88;;;;;;;;;;4994631;28;20027;-71
2021/04/19 04:15:58;;;;;;;5.82;3.50;;;;;;;;;;4994500;28;20049;-71
2021/04/19 04:18:24;;;;;;;9.13;3.90;;;;;;;;;;4994471;28;20026;-70
2021/04/19 04:20:50;;;;;;;7.40;3.97;;;;;;;;;;4994217;28;20511;-71
2021/04/19 04:23:17;;;;;;;6.60;4.30;;;;;;;;;;4993958;28;20066;-70
2021/04/19 04:25:44;;;;;;;6.82;4.40;;;;;;;;;;4994112;28;20041;-69
2021/04/19 04:28:10;;;;;;;6.25;4.20;;;;;;;;;;4994367;28;20030;-69
2021/04/19 04:30:37;;;;;;;6.75;4.15;;;;;;;;;;4976702;28;20580;-71
2021/04/19 04:33:04;;;;;;;7.65;4.72;;;;;;;;;;4988747;28;20038;-69
2021/04/19 04:35:30;;;;;;;7.13;4.25;;;;;;;;;;4994066;28;20029;-70
2021/04/19 04:37:57;;;;;;;6.43;4.13;;;;;;;;;;4993984;28;20141;-70
2021/04/19 04:40:24;;;;;;;6.47;4.30;;;;;;;;;;4993957;28;20025;-70
2021/04/19 04:42:52;;;;;;;6.63;4.63;;;;;;;;;;4993785;28;20080;-69
2021/04/19 04:45:18;;;;;;;10.38;4.88;;;;;;;;;;4993382;28;20022;-70
2021/04/19 04:47:44;;;;;;;7.45;4.60;;;;;;;;;;4976339;28;20385;-70
2021/04/19 04:50:22;;;;;;;6.53;4.30;;;;;;;;;;4993610;28;20073;-69
2021/04/19 04:52:54;;;;;;;6.28;4.05;;;;;;;;;;4976192;28;20409;-70
2021/04/19 04:55:20;;;;;;;7.55;4.85;;;;;;;;;;4993381;28;20474;-70
2021/04/19 04:57:47;;;;;;;7.00;4.25;;;;;;;;;;4993513;28;20022;-70
2021/04/19 05:00:18;;;;;;;8.77;4.68;;;;;;;;;;4993812;28;20030;-70
2021/04/19 05:02:46;;;;;;;5.45;3.92;;;;;;;;;;4993579;28;20035;-70
2021/04/19 05:05:13;;;;;;;6.18;4.20;;;;;;;;;;4976040;28;20057;-71
2021/04/19 05:07:40;;;;;;;5.45;3.70;;;;;;;;;;4993252;28;20014;-70
2021/04/19 05:10:06;;;;;;;6.05;3.85;;;;;;;;;;4993159;28;20577;-70
2021/04/19 05:12:32;;;;;;;6.57;4.63;;;;;;;;;;4993155;28;20073;-69
2021/04/19 05:15:06;;;;;;;6.32;4.05;;;;;;;;;;4975566;28;20053;-71
2021/04/19 05:17:32;;;;;;;7.15;5.10;;;;;;;;;;4993017;28;20054;-71
2021/04/19 05:19:59;;;;;;;7.63;5.80;;;;;;;;;;4993359;28;20019;-70
2021/04/19 05:22:25;;;;;;;6.05;4.13;;;;;;;;;;4993068;28;20519;-71
2021/04/19 05:24:51;;;;;;;8.07;4.90;;;;;;;;;;4975528;28;20018;-70
2021/04/19 05:27:17;;;;;;;7.80;4.68;;;;;;;;;;4993141;28;20639;-69
2021/04/19 05:29:44;;;;;;;6.88;4.15;;;;;;;;;;4993322;28;20018;-69
2021/04/19 05:32:10;;;;;;;6.63;4.30;;;;;;;;;;4993045;28;20026;-71
2021/04/19 05:34:37;;;;;;;6.55;3.95;;;;;;;;;;4993114;28;20030;-70
2021/04/19 05:37:04;;;;;;;8.77;4.20;;;;;;;;;;4993083;28;20026;-70
2021/04/19 05:39:34;;;;;;;8.20;3.70;;;;;;;;;;4992966;28;20077;-72
2021/04/19 05:42:04;;;;;;;5.63;3.60;;;;;;;;;;4992920;28;20022;-70
2021/04/19 05:44:30;;;;;;;7.05;3.92;;;;;;;;;;4992861;28;20030;-71
2021/04/19 05:46:56;;;;;;;7.28;4.45;;;;;;;;;;4988590;28;20546;-70
2021/04/19 05:49:22;;;;;;;6.50;4.28;;;;;;;;;;4992751;28;20110;-70
2021/04/19 05:51:49;;;;;;;5.78;3.88;;;;;;;;;;4992779;28;20026;-70
2021/04/19 05:54:16;;;;;;;4.93;3.40;;;;;;;;;;4992815;28;20471;-70
2021/04/19 05:56:49;;;;;;;6.05;3.88;;;;;;;;;;4975343;28;20026;-71
2021/04/19 05:59:15;;;;;;;;;;;;;;;;;;4993208;28;20376;-70
2021/04/19 06:01:44;;;;;;;6.80;3.20;;;;;;;;;;4992634;28;20409;-70
2021/04/19 06:04:13;;;;;;;5.05;3.35;;;;;;;;;;4992443;28;20491;-70
2021/04/19 06:06:52;;;;;;;6.25;3.20;;;;;;;;;;4992330;28;20419;-70
2021/04/19 06:09:27;;;;;;;7.13;3.15;;;;;;;;;;4974926;28;20026;-69
2021/04/19 06:11:58;;;;;;;6.10;3.42;;;;;;;;;;4992383;28;20054;-70
2021/04/19 06:14:26;;;;;;;6.72;3.22;;;;;;;;;;4992563;28;20110;-70
2021/04/19 06:16:54;;;;;;;5.45;3.13;;;;;;;;;;4992555;28;20081;-71
2021/04/19 06:19:21;;;;;;;4.93;3.00;;;;;;;;;;4992508;28;20034;-70
2021/04/19 06:21:47;;;;;;;7.63;3.20;;;;;;;;;;4991999;28;20112;-70
2021/04/19 06:24:14;;;;;;;4.97;3.15;;;;;;;;;;4992445;28;20037;-71
2021/04/19 06:26:40;;;;;;;4.03;2.67;;;;;;;;;;4992492;28;20034;-70
2021/04/19 06:29:08;;;;;;;6.70;3.00;;;;;;;;;;4992470;28;20081;-70
2021/04/19 06:31:35;;;;;;;5.05;2.80;;;;;;;;;;4992540;28;20534;-71
2021/04/19 06:34:08;;;;;;;4.60;2.45;;;;;;;;;;4992488;28;20054;-71
2021/04/19 06:36:38;;;;;;;5.70;2.88;;;;;;;;;;4992192;28;20487;-70
2021/04/19 06:39:06;;;;;;;5.85;2.75;;;;;;;;;;4992367;28;20030;-70
2021/04/19 06:41:32;;;;;;;6.55;2.97;;;;;;;;;;4992045;28;20102;-69
2021/04/19 06:43:58;;;;;;;5.75;3.03;;;;;;;;;;4974726;28;20128;-70
2021/04/19 06:46:30;;;;;;;5.90;2.85;;;;;;;;;;4992257;28;20027;-70
2021/04/19 06:48:56;;;;;;;8.18;2.42;;;;;;;;;;4992154;28;20108;-70
2021/04/19 06:51:22;;;;;;;4.78;3.00;;;;;;;;;;4991830;28;20037;-70
2021/04/19 06:53:52;;;;;;;5.40;2.60;;;;;;;;;;4983462;28;20114;-70
2021/04/19 06:56:22;;;;;;;5.40;3.10;;;;;;;;;;4972783;28;20035;-72
2021/04/19 06:58:49;;;;;;;5.97;2.75;;;;;;;;;;4972597;28;20033;-71
2021/04/19 07:01:17;;;;;;;5.75;2.75;;;;;;;;;;4972625;28;20030;-71
2021/04/19 07:03:44;;;;;;;6.68;2.72;;;;;;;;;;4982699;28;20415;-71
2021/04/19 07:06:11;;;;;;;5.60;2.60;;;;;;;;;;4991253;28;20031;-74
2021/04/19 07:08:49;;;;;;;4.60;2.53;;;;;;;;;;4991340;28;20162;-75
2021/04/19 07:11:24;;;;;;;4.85;2.22;;;;;;;;;;4973835;28;20376;-73
2021/04/19 07:13:50;;;;;;;5.13;2.55;;;;;;;;;;4991347;28;20084;-74
2021/04/19 07:16:17;;;;;;;4.18;2.58;;;;;;;;;;4991486;28;20018;-74
2021/04/19 07:18:43;;;;;;;5.38;2.67;;;;;;;;;;4991584;28;20149;-74
2021/04/19 07:21:10;;;;;;;4.05;2.33;;;;;;;;;;4994804;28;20018;-72
2021/04/19 07:23:37;;;;;;;4.20;2.30;;;;;;;;;;4994341;28;20066;-73
2021/04/19 07:26:06;;;;;;;5.25;2.55;;;;;;;;;;4994614;28;20038;-73
2021/04/19 07:28:36;;;;;;;5.13;2.72;;;;;;;;;;4977077;28;20391;-72
2021/04/19 07:31:03;;;;;;;3.90;2.30;;;;;;;;;;4976841;28;20454;-72
2021/04/19 07:33:33;;;;;;;4.13;2.13;;;;;;;;;;4994637;28;20020;-73
2021/04/19 07:36:18;;;;;;;4.38;2.30;;;;;;;;;;4994707;28;20018;-72
2021/04/19 07:38:45;;;;;;;3.85;2.15;;;;;;;;;;4994504;28;20019;-72
2021/04/19 07:41:11;;;;;;;7.45;2.33;;;;;;;;;;4994573;28;20061;-72
2021/04/19 07:43:38;;;;;;;8.13;2.83;;;;;;;;;;4994477;28;20514;-71
2021/04/19 07:46:09;;;;;;;5.97;2.40;;;;;;;;;;4994308;28;20167;-72
2021/04/19 07:48:39;;;;;;;4.28;2.30;;;;;;;;;;4994354;28;20027;-73
2021/04/19 07:51:24;;;;;;;3.55;2.00;;;;;;;;;;4994237;28;20114;-72
2021/04/19 07:53:50;;;;;;;3.85;2.10;;;;;;;;;;4985308;28;20019;-73
2021/04/19 07:56:17;;;;;;;5.43;1.92;;;;;;;;;;4973238;28;20395;-73
2021/04/19 07:58:43;;;;;;;6.35;2.30;;;;;;;;;;4976206;28;20030;-73
2021/04/19 08:01:09;;;;;;;3.25;1.70;;;;;;;;;;4976507;28;20061;-74
2021/04/19 08:03:40;;;;;;;4.47;1.98;;;;;;;;;;4993484;28;20042;-74
2021/04/19 08:06:19;;;;;;;3.97;1.85;;;;;;;;;;4993848;28;20026;-74
2021/04/19 08:08:45;;;;;;;3.72;1.90;;;;;;;;;;4993702;28;20026;-74
2021/04/19 08:11:16;;;;;;;5.20;2.25;;;;;;;;;;4993277;28;20050;-74
2021/04/19 08:13:42;;;;;;;5.25;2.50;;;;;;;;;;4993195;28;20037;-74
2021/04/19 08:16:19;;;;;;;4.18;2.38;;;;;;;;;;4993482;28;20026;-74
2021/04/19 08:18:45;;;;;;;4.82;1.80;;;;;;;;;;4993593;28;20479;-70
2021/04/19 08:21:11;;;;;;;6.32;2.00;;;;;;;;;;4994167;28;20035;-69
2021/04/19 08:23:42;;;;;;;6.57;2.47;;;;;;;;;;4975854;28;20061;-69
2021/04/19 08:26:08;;;;;;;6.90;1.98;;;;;;;;;;4976019;28;20550;-72
2021/04/19 08:28:45;;;;;;;3.97;2.13;;;;;;;;;;4993799;28;20031;-68
2021/04/19 08:31:12;;;;;;;3.70;2.10;;;;;;;;;;4974938;28;20027;-72
2021/04/19 08:33:39;;;;;;;6.28;2.20;;;;;;;;;;4993398;28;20018;-69
2021/04/19 08:36:15;;;;;;;7.40;1.95;;;;;;;;;;4993059;28;20027;-72
2021/04/19 08:38:42;;;;;;;5.95;1.85;;;;;;;;;;4975680;28;20019;-73
2021/04/19 08:41:09;;;;;;;3.67;1.98;;;;;;;;;;4993369;28;20102;-71
2021/04/19 08:43:36;;;;;;;14.07;2.05;;;;;;;;;;4993357;28;20138;-70
2021/04/19 08:46:03;;;;;;;4.30;1.70;;;;;;;;;;4992295;28;20032;-69
2021/04/19 08:48:29;;;;;;;3.92;1.73;;;;;;;;;;4993083;28;20038;-69
2021/04/19 08:50:55;;;;;;;5.30;1.80;;;;;;;;;;4993521;28;20018;-69
2021/04/19 08:53:22;;;;;;;3.45;1.90;;;;;;;;;;4987729;28;20227;-69
2021/04/19 08:55:48;;;;;;;9.93;1.95;;;;;;;;;;4973464;28;20049;-69
2021/04/19 08:58:16;;;;;;;4.85;2.50;;;;;;;;;;4973766;28;20095;-69
2021/04/19 09:00:45;;;;;;;3.75;2.00;;;;;;;;;;4973579;28;20094;-73
2021/04/19 09:03:15;;;;;;;6.38;1.70;;;;;;;;;;4973719;28;20042;-78
2021/04/19 09:05:41;;;;;;;5.05;1.80;;;;;;;;;;4973923;28;20022;-77
2021/04/19 09:08:08;;;;;;;3.10;1.40;;;;;;;;;;4972626;28;20027;-73
2021/04/19 09:10:48;;;;;;;5.13;1.70;;;;;;;;;;4982660;28;20119;-67
2021/04/19 09:13:43;;;;;;;5.25;1.70;;;;;;;;;;4992823;28;20083;-72
2021/04/19 09:16:14;;;;;;;5.28;1.50;;;;;;;;;;4980333;28;20046;-72
2021/04/19 09:18:41;;;;;;;3.35;1.70;;;;;;;;;;4975558;28;20034;-72
2021/04/19 09:21:08;;;;;;;9.23;1.75;;;;;;;;;;4993415;28;20237;-72
2021/04/19 09:23:35;;;;;;;8.32;2.28;;;;;;;;;;4974775;28;20054;-72
2021/04/19 09:26:01;;;;;;;3.88;1.92;;;;;;;;;;4992967;28;20379;-71
2021/04/19 09:28:40;;;;;;;5.22;2.15;;;;;;;;;;4992633;28;20154;-71
2021/04/19 09:31:06;;;;;;;3.72;1.85;;;;;;;;;;4975309;28;20014;-72
2021/04/19 09:33:32;;;;;;;4.40;1.92;;;;;;;;;;4974596;28;20030;-75
2021/04/19 09:35:58;;;;;;;5.20;2.03;;;;;;;;;;4992219;28;20419;-72
2021/04/19 09:38:34;;;;;;;4.65;1.58;;;;;;;;;;4992342;28;20050;-68
2021/04/19 09:41:07;;;;;;;3.85;2.20;;;;;;;;;;4992095;28;20023;-74
2021/04/19 09:43:33;;;;;;;4.07;2.05;;;;;;;;;;4991791;28;20442;-74
2021/04/19 09:46:26;;;;;;;4.35;2.13;;;;;;;;;;4992318;28;20029;-70
2021/04/19 09:48:55;;;;;;;3.40;2.00;;;;;;;;;;4972027;28;20038;-70
2021/04/19 09:51:23;;;;;;;5.57;1.80;;;;;;;;;;4992086;28;20029;-70
2021/04/19 09:53:57;;;;;;;3.63;2.10;;;;;;;;;;4983798;28;20104;-72
2021/04/19 09:56:25;;;;;;;4.03;1.98;;;;;;;;;;4971747;28;20507;-65
2021/04/19 09:58:51;;;;;;;3.45;1.70;;;;;;;;;;4973014;28;20023;-69
2021/04/19 10:01:21;;;;;;;3.50;1.50;;;;;;;;;;4979945;28;20038;-69
2021/04/19 10:03:48;;;;;;;5.28;2.10;;;;;;;;;;4992072;28;20034;-69
2021/04/19 10:06:15;;;;;;;4.20;1.77;;;;;;;;;;4992322;28;20030;-68
2021/04/19 10:08:41;;;;;;;3.45;1.77;;;;;;;;;;4992108;28;20048;-69
2021/04/19 10:11:09;;;;;;;5.13;1.85;;;;;;;;;;4992578;28;20023;-69
2021/04/19 10:13:38;;;;;;;3.13;1.25;;;;;;;;;;4974100;28;20022;-73
2021/04/19 10:16:05;;;;;;;3.28;1.52;;;;;;;;;;4974805;28;20507;-68
2021/04/19 10:18:31;;;;;;;2.53;1.20;;;;;;;;;;4991982;28;20030;-69
2021/04/19 10:20:58;;;;;;;2.60;1.50;;;;;;;;;;4991755;28;20121;-68
2021/04/19 10:23:31;;;;;;;3.30;1.90;;;;;;;;;;4991667;28;20069;-70
2021/04/19 10:25:57;;;;;;;4.00;1.58;;;;;;;;;;4992126;28;20415;-71
2021/04/19 10:28:33;;;;;;;2.85;1.45;;;;;;;;;;4974614;28;20022;-70
2021/04/19 10:31:10;;;;;;;2.92;1.52;;;;;;;;;;4992016;28;20022;-70
2021/04/19 10:33:36;;;;;;;5.30;2.05;;;;;;;;;;4974503;28;20027;-70
2021/04/19 10:36:16;;;;;;;5.75;1.88;;;;;;;;;;4974394;28;20026;-69
2021/04/19 10:38:43;;;;;;;10.35;2.00;;;;;;;;;;4992024;28;20439;-69
2021/04/19 10:41:09;;;;;;;4.05;1.80;;;;;;;;;;4991912;28;20019;-70
2021/04/19 10:43:35;;;;;;;5.25;1.80;;;;;;;;;;4973976;28;20568;-69
2021/04/19 10:46:01;;;;;;;4.35;1.92;;;;;;;;;;4991317;28;20026;-69
2021/04/19 10:48:32;;;;;;;5.68;2.03;;;;;;;;;;4991405;28;20026;-69
2021/04/19 10:51:14;;;;;;;4.50;2.20;;;;;;;;;;4991398;28;20021;-70
2021/04/19 10:53:41;;;;;;;5.83;2.90;;;;;;;;;;4970649;28;20027;-69
2021/04/19 10:56:08;;;;;;;4.03;2.22;;;;;;;;;;4978798;28;20261;-69
2021/04/19 10:58:35;;;;;;;6.63;2.95;;;;;;;;;;4977951;28;20110;-69
2021/04/19 11:01:02;;;;;;;4.68;2.35;;;;;;;;;;4977996;28;20022;-69
2021/04/19 11:03:38;;;;;;;6.25;2.30;;;;;;;;;;4994969;28;20037;-77
2021/04/19 11:06:06;;;;;;;6.95;1.80;;;;;;;;;;4995745;28;20018;-72
2021/04/19 11:08:48;;;;;;;4.15;2.17;;;;;;;;;;4994884;28;20026;-74
2021/04/19 11:11:43;;;;;;;5.97;1.83;;;;;;;;;;4995403;28;20018;-72
2021/04/19 11:14:12;;;;;;;6.20;1.85;;;;;;;;;;4982449;28;20125;-71
2021/04/19 11:16:58;;;;;;;4.10;1.77;;;;;;;;;;4994744;28;20065;-67
2021/04/19 11:19:31;;;;;;;3.95;2.10;;;;;;;;;;4994541;28;20050;-68
2021/04/19 11:21:58;;;;;;;4.18;2.30;;;;;;;;;;4994962;28;20042;-71
2021/04/19 11:24:35;;;;;;;5.30;2.05;;;;;;;;;;4994881;28;20113;-72
2021/04/19 11:27:05;;;;;;;5.10;2.10;;;;;;;;;;4977196;28;20026;-71
2021/04/19 11:29:38;;;;;;;5.53;2.28;;;;;;;;;;4994591;28;20085;-68
2021/04/19 11:32:06;;;;;;;4.68;2.20;;;;;;;;;;4995011;28;20019;-69
2021/04/19 11:34:36;;;;;;;5.78;2.35;;;;;;;;;;4995140;28;20533;-74
2021/04/19 11:37:02;;;;;;;4.50;2.10;;;;;;;;;;4977184;28;20444;-72
2021/04/19 11:39:31;;;;;;;3.88;2.10;;;;;;;;;;4994527;28;20038;-72
2021/04/19 11:41:58;;;;;;;4.18;1.90;;;;;;;;;;4994639;28;20043;-76
2021/04/19 11:44:42;;;;;;;3.97;2.17;;;;;;;;;;4994295;28;20018;-76
2021/04/19 11:47:08;;;;;;;4.30;2.35;;;;;;;;;;4977055;28;20022;-72
2021/04/19 11:49:34;;;;;;;5.68;2.40;;;;;;;;;;4976759;28;20023;-66
2021/04/19 11:52:01;;;;;;;6.35;2.42;;;;;;;;;;4994488;28;20640;-78
2021/04/19 11:54:27;;;;;;;4.28;2.30;;;;;;;;;;4994565;28;20882;-73
2021/04/19 11:56:53;;;;;;;4.60;2.33;;;;;;;;;;4994464;28;20058;-69
2021/04/19 11:59:19;;;;;;;4.50;2.65;;;;;;;;;;4994064;28;20050;-69
2021/04/19 12:01:45;;;;;;;4.88;2.83;;;;;;;;;;4976681;28;20487;-70
2021/04/19 12:04:14;;;;;;;5.32;2.90;;;;;;;;;;4994573;28;20042;-69
2021/04/19 12:06:40;;;;;;;4.25;2.72;;;;;;;;;;4994402;28;20023;-76
2021/04/19 12:09:06;;;;;;;6.03;3.25;;;;;;;;;;4994560;28;20513;-69
2021/04/19 12:11:32;;;;;;;5.90;2.88;;;;;;;;;;4994112;28;20022;-68
2021/04/19 12:14:01;;;;;;;5.20;3.30;;;;;;;;;;4994395;28;20018;-67
2021/04/19 12:16:28;;;;;;;4.55;3.10;;;;;;;;;;4994294;28;20022;-66
2021/04/19 12:18:54;;;;;;;5.82;3.22;;;;;;;;;;4994427;28;20394;-69
2021/04/19 12:21:21;;;;;;;5.03;3.28;;;;;;;;;;4976182;28;20067;-67
2021/04/19 12:23:47;;;;;;;6.20;4.00;;;;;;;;;;4993567;28;20117;-67
2021/04/19 12:26:13;;;;;;;6.28;3.78;;;;;;;;;;4993950;28;20077;-70
2021/04/19 12:28:39;;;;;;;6.35;3.72;;;;;;;;;;4993953;28;20019;-69
2021/04/19 12:31:06;;;;;;;5.28;3.13;;;;;;;;;;4994140;28;20037;-69
2021/04/19 12:33:33;;;;;;;7.00;3.90;;;;;;;;;;4993709;28;20578;-67
2021/04/19 12:35:59;;;;;;;6.07;4.18;;;;;;;;;;4975931;28;20073;-73
2021/04/19 12:38:25;;;;;;;7.40;4.10;;;;;;;;;;4976256;28;20399;-70
2021/04/19 12:40:51;;;;;;;7.20;4.00;;;;;;;;;;4993254;28;20011;-71
2021/04/19 12:43:18;;;;;;;9.02;4.10;;;;;;;;;;4993192;28;20427;-73
2021/04/19 12:45:44;;;;;;;5.38;3.78;;;;;;;;;;4991913;28;20030;-73
2021/04/19 12:48:12;;;;;;;7.75;4.45;;;;;;;;;;4993221;28;20023;-75
2021/04/19 12:50:38;;;;;;;9.48;4.25;;;;;;;;;;4992977;28;20145;-71
2021/04/19 12:53:05;;;;;;;6.55;3.78;;;;;;;;;;4993431;28;20040;-68
2021/04/19 12:55:31;;;;;;;6.25;3.88;;;;;;;;;;4993457;28;20027;-73
2021/04/19 12:57:58;;;;;;;5.47;3.63;;;;;;;;;;4993634;28;20026;-79
2021/04/19 13:00:25;;;;;;;7.63;4.07;;;;;;;;;;4989714;28;20018;-73
2021/04/19 13:02:51;;;;;;;5.97;3.72;;;;;;;;;;4979268;28;20129;-73
2021/04/19 13:05:17;;;;;;;8.15;3.85;;;;;;;;;;4971256;28;20027;-71
2021/04/19 13:07:44;;;;;;;5.85;4.15;;;;;;;;;;4986119;28;20023;-73
2021/04/19 13:10:10;;;;;;;6.18;4.35;;;;;;;;;;4975349;28;20599;-68
2021/04/19 13:12:36;;;;;;;9.23;4.05;;;;;;;;;;4975714;28;20470;-66
2021/04/19 13:15:03;;;;;;;5.88;3.60;;;;;;;;;;4992951;28;20494;-68
2021/04/19 13:17:29;;;;;;;5.65;3.60;;;;;;;;;;4992628;28;20117;-71
2021/04/19 13:19:59;;;;;;;9.38;4.47;;;;;;;;;;4975319;28;20113;-68
2021/04/19 13:22:25;;;;;;;6.13;4.20;;;;;;;;;;4992334;28;20081;-71
2021/04/19 13:24:51;;;;;;;8.05;4.00;;;;;;;;;;4992607;28;20487;-82
2021/04/19 13:27:18;;;;;;;6.80;4.18;;;;;;;;;;4987290;28;20027;-68
2021/04/19 13:29:44;;;;;;;6.20;4.00;;;;;;;;;;4976233;28;20114;-68
2021/04/19 13:32:10;;;;;;;7.78;4.30;;;;;;;;;;4975111;28;20022;-67
2021/04/19 13:34:37;;;;;;;7.93;4.32;;;;;;;;;;4975417;28;20113;-69
2021/04/19 13:37:03;;;;;;;8.52;4.70;;;;;;;;;;4993021;28;20077;-66
2021/04/19 13:39:30;;;;;;;8.32;4.90;;;;;;;;;;4992773;28;20033;-68
2021/04/19 13:41:56;;;;;;;6.78;4.68;;;;;;;;;;4992741;28;20049;-70
2021/04/19 13:44:24;;;;;;;8.10;5.60;;;;;;;;;;4993628;28;20113;-82
2021/04/19 13:46:50;;;;;;;6.50;4.47;;;;;;;;;;4976205;28;20022;-70
2021/04/19 13:49:16;;;;;;;7.38;4.28;;;;;;;;;;4992404;28;20030;-68
2021/04/19 13:51:43;;;;;;;6.60;4.60;;;;;;;;;;4994838;28;20101;-66
2021/04/19 13:54:09;;;;;;;10.15;4.68;;;;;;;;;;4992410;28;20130;-77
2021/04/19 13:56:35;;;;;;;10.90;4.57;;;;;;;;;;4975214;28;20022;-79
2021/04/19 13:59:02;;;;;;;6.45;4.20;;;;;;;;;;4992638;28;20133;-78
2021/04/19 14:01:28;;;;;;;9.02;4.85;;;;;;;;;;4992210;28;20022;-69
2021/04/19 14:03:54;;;;;;;8.10;4.40;;;;;;;;;;4974819;28;20049;-69
2021/04/19 14:06:20;;;;;;;6.30;4.10;;;;;;;;;;5000736;28;20030;-66
2021/04/19 14:08:46;;;;;;;7.03;4.63;;;;;;;;;;5006148;28;20058;-66
2021/04/19 14:11:12;;;;;;;8.77;4.75;;;;;;;;;;4991851;28;20022;-72
2021/04/19 14:13:38;;;;;;;8.60;4.45;;;;;;;;;;4991676;28;20085;-67
2021/04/19 14:16:04;;;;;;;6.60;4.60;;;;;;;;;;4974802;28;20050;-67
2021/04/19 14:18:35;;;;;;;6.95;5.05;;;;;;;;;;4991895;28;20018;-73
2021/04/19 14:21:01;;;;;;;9.70;5.07;;;;;;;;;;4992681;28;20022;-66
2021/04/19 14:23:27;;;;;;;7.82;4.85;;;;;;;;;;4971403;28;20057;-68
2021/04/19 14:25:53;;;;;;;8.02;4.80;;;;;;;;;;4972919;28;20493;-67
2021/04/19 14:28:19;;;;;;;8.88;4.80;;;;;;;;;;4971853;28;20365;-67
2021/04/19 14:30:45;;;;;;;9.50;5.18;;;;;;;;;;4974815;28;20019;-74
2021/04/19 14:33:11;;;;;;;7.13;4.68;;;;;;;;;;4974727;28;20085;-70
2021/04/19 14:35:37;;;;;;;7.65;4.22;;;;;;;;;;4976057;28;20073;-67
2021/04/19 14:38:03;;;;;;;11.77;4.38;;;;;;;;;;4975425;28;20030;-66
2021/04/19 14:40:30;;;;;;;8.05;4.38;;;;;;;;;;4976658;28;20026;-66
2021/04/19 14:42:56;;;;;;;8.25;5.15;;;;;;;;;;4976354;28;20087;-66
2021/04/19 14:45:22;;;;;;;6.50;4.45;;;;;;;;;;4975007;28;20033;-68
2021/04/19 14:47:48;;;;;;;6.95;4.70;;;;;;;;;;4974708;28;20015;-68
2021/04/19 14:50:14;;;;;;;9.30;5.10;;;;;;;;;;4976305;28;20030;-67